createdAt,value
2024-03-02T00:01:32.222Z,22.30
2024-03-02T00:04:01.798Z,18.70
2024-03-02T00:06:39.044Z,22.60
2024-03-02T00:09:21.696Z,20.60
2024-03-02T00:11:54.161Z,19.80
2024-03-02T00:14:25.647Z,24.50
2024-03-02T00:21:58.712Z,19.80
2024-03-02T00:24:41.454Z,18.20
2024-03-02T00:27:16.577Z,20.20
2024-03-02T00:29:47.193Z,25.50
2024-03-02T00:32:19.397Z,24.60
2024-03-02T00:34:53.550Z,22.60
2024-03-02T00:37:31.459Z,21.00
2024-03-02T00:46:18.192Z,23.70
2024-03-02T00:53:43.882Z,24.50
2024-03-02T00:56:17.331Z,25.60
2024-03-02T00:59:07.903Z,24.60
2024-03-02T01:01:36.791Z,24.70
2024-03-02T01:04:12.926Z,24.60
2024-03-02T01:07:09.905Z,26.80
2024-03-02T01:09:42.647Z,26.50
2024-03-02T01:12:16.536Z,25.70
2024-03-02T01:14:50.549Z,24.30
2024-03-02T01:17:41.039Z,24.60
2024-03-02T01:20:12.976Z,25.10
2024-03-02T01:22:51.413Z,24.50
2024-03-02T01:25:28.317Z,25.40
2024-03-02T01:28:16.013Z,28.80
2024-03-02T01:30:51.060Z,32.60
2024-03-02T01:33:31.941Z,28.00
2024-03-02T01:45:01.587Z,31.20
2024-03-02T01:47:52.944Z,23.40
2024-03-02T01:50:57.666Z,26.60
2024-03-02T01:53:40.026Z,26.30
2024-03-02T02:00:17.339Z,23.60
2024-03-02T02:23:36.840Z,25.20
2024-03-02T02:33:13.282Z,27.60
2024-03-02T02:35:53.603Z,23.40
2024-03-02T02:43:07.808Z,23.10
2024-03-02T02:55:19.051Z,27.40
2024-03-02T03:12:39.639Z,26.30
2024-03-02T03:15:10.872Z,24.10
2024-03-02T03:41:44.418Z,24.80
2024-03-02T03:44:37.585Z,26.30
2024-03-02T03:47:40.039Z,26.00
2024-03-02T03:50:17.482Z,25.30
2024-03-02T04:03:07.618Z,26.80
2024-03-02T04:10:23.838Z,26.20
2024-03-02T04:13:37.701Z,26.80
2024-03-02T04:23:56.124Z,22.90
2024-03-02T04:26:55.106Z,24.00
2024-03-02T04:30:05.271Z,26.40
2024-03-02T04:32:41.365Z,22.20
2024-03-02T04:35:25.442Z,25.20
2024-03-02T04:37:57.523Z,26.70
2024-03-02T04:41:01.371Z,27.20
2024-03-02T04:43:57.667Z,27.50
2024-03-02T04:46:35.722Z,29.90
2024-03-02T04:49:23.560Z,25.30
2024-03-02T04:51:53.028Z,25.70
2024-03-02T05:16:52.188Z,24.50
2024-03-02T05:37:45.885Z,27.30
2024-03-02T05:40:17.058Z,34.50
2024-03-02T05:42:50.572Z,27.50
2024-03-02T05:46:24.247Z,31.20
2024-03-02T05:53:11.392Z,26.80
2024-03-02T06:05:27.310Z,27.50
2024-03-02T06:18:20.680Z,21.80
2024-03-02T06:25:43.670Z,22.90
2024-03-02T06:28:24.196Z,19.60
2024-03-02T06:34:06.768Z,26.80
2024-03-02T06:40:39.033Z,23.10
2024-03-02T06:55:56.020Z,26.30
2024-03-02T07:03:06.989Z,25.60
2024-03-02T07:05:45.967Z,23.90
2024-03-02T07:09:26.941Z,27.80
2024-03-02T07:12:08.847Z,20.80
2024-03-02T07:16:00.610Z,20.60
2024-03-02T07:20:08.596Z,23.50
2024-03-02T07:23:40.429Z,23.10
2024-03-02T07:30:07.178Z,18.90
2024-03-02T07:33:37.457Z,23.80
2024-03-02T07:36:26.540Z,22.30
2024-03-02T07:39:21.128Z,24.30
2024-03-02T07:41:57.096Z,20.80
2024-03-02T07:44:34.810Z,21.40
2024-03-02T07:47:43.607Z,16.50
2024-03-02T07:50:20.535Z,19.20
2024-03-02T07:53:34.304Z,24.40
2024-03-02T07:56:17.998Z,18.30
2024-03-02T07:59:50.554Z,21.30
2024-03-02T08:22:32.416Z,18.30
2024-03-02T08:25:07.204Z,19.90
2024-03-02T08:27:43.419Z,16.40
2024-03-02T08:37:21.967Z,20.70
2024-03-02T08:40:19.534Z,17.40
2024-03-02T08:43:17.511Z,15.70
2024-03-02T08:45:51.134Z,39.60
2024-03-02T08:48:28.099Z,15.40
2024-03-02T08:51:01.629Z,19.40
2024-03-02T08:53:31.115Z,19.10
2024-03-02T08:57:01.668Z,20.50
2024-03-02T08:59:37.421Z,17.90
2024-03-02T09:02:12.476Z,18.20
2024-03-02T09:04:48.253Z,16.00
2024-03-02T09:10:23.816Z,19.80
2024-03-02T09:13:08.324Z,19.40
2024-03-02T09:15:45.987Z,16.80
2024-03-02T09:18:23.454Z,15.50
2024-03-02T09:21:01.286Z,12.70
2024-03-02T09:24:23.531Z,14.80
2024-03-02T09:26:58.565Z,15.80
2024-03-02T09:30:20.410Z,19.10
2024-03-02T09:33:17.437Z,13.50
2024-03-02T09:37:15.410Z,16.90
2024-03-02T09:39:49.953Z,13.60
2024-03-02T09:42:27.748Z,15.20
2024-03-02T09:45:24.676Z,15.00
2024-03-02T09:48:23.607Z,15.40
2024-03-02T09:54:22.399Z,13.40
2024-03-02T09:57:27.809Z,11.90
2024-03-02T10:00:08.677Z,13.30
2024-03-02T10:02:47.018Z,13.50
2024-03-02T10:05:34.695Z,14.40
2024-03-02T10:08:09.232Z,13.40
2024-03-02T10:11:30.941Z,19.90
2024-03-02T10:15:30.454Z,20.10
2024-03-02T10:18:55.112Z,14.90
2024-03-02T10:22:05.184Z,14.00
2024-03-02T10:25:37.362Z,12.50
2024-03-02T10:28:35.803Z,11.50
2024-03-02T10:31:09.494Z,11.40
2024-03-02T10:34:05.214Z,14.90
2024-03-02T10:36:47.963Z,14.70
2024-03-02T10:47:46.037Z,14.40
2024-03-02T10:56:04.450Z,15.40
2024-03-02T10:59:44.111Z,13.60
2024-03-02T11:02:38.005Z,12.30
2024-03-02T11:05:36.653Z,13.70
2024-03-02T11:39:05.391Z,17.30
2024-03-02T11:41:54.154Z,12.90
2024-03-02T12:12:11.914Z,12.10
2024-03-02T12:18:45.532Z,11.20
2024-03-02T14:55:02.596Z,13.80
2024-03-02T14:57:53.192Z,12.20
2024-03-02T15:05:17.327Z,12.00
2024-03-02T15:09:46.317Z,14.10
2024-03-02T15:12:21.345Z,12.70
2024-03-02T15:14:55.008Z,14.10
2024-03-02T15:17:49.628Z,13.50
2024-03-02T15:20:31.717Z,19.70
2024-03-02T16:25:37.342Z,18.90
2024-03-02T16:28:15.142Z,19.40
2024-03-02T16:36:18.980Z,16.10
2024-03-02T16:39:11.421Z,16.60
2024-03-02T16:42:30.257Z,17.70
2024-03-02T16:45:03.329Z,17.80
2024-03-02T16:56:33.280Z,18.80
2024-03-02T17:21:29.474Z,23.10
2024-03-02T17:24:05.636Z,22.50
2024-03-02T17:31:06.230Z,26.30
2024-03-02T17:34:47.162Z,19.70
2024-03-02T17:38:34.485Z,22.10
2024-03-02T18:35:10.204Z,16.10
2024-03-02T19:03:05.287Z,16.10
2024-03-02T19:54:51.672Z,12.80
2024-03-02T20:02:18.473Z,12.70
2024-03-02T20:14:39.607Z,12.60
2024-03-02T20:26:56.312Z,12.40
2024-03-02T20:34:00.739Z,13.30
2024-03-02T20:37:30.768Z,14.80
2024-03-02T20:40:04.262Z,15.90
2024-03-02T20:42:47.098Z,14.50
2024-03-02T20:45:22.733Z,14.70
2024-03-02T20:54:20.678Z,17.10
2024-03-02T20:58:22.908Z,17.80
2024-03-02T21:10:40.657Z,16.10
2024-03-02T21:13:43.400Z,17.30
2024-03-02T21:22:29.674Z,17.90
2024-03-02T21:30:05.258Z,19.00
2024-03-02T21:33:30.936Z,17.70
2024-03-02T21:37:40.373Z,17.30
2024-03-02T21:41:03.839Z,16.60
2024-03-02T21:43:49.147Z,16.80
2024-03-02T21:46:28.175Z,16.00
2024-03-02T21:49:10.405Z,15.60
2024-03-02T21:51:45.812Z,15.70
2024-03-02T22:00:57.263Z,15.40
2024-03-02T22:04:05.802Z,17.20
2024-03-02T22:07:10.498Z,15.10
2024-03-02T22:09:43.940Z,15.90
2024-03-02T22:12:14.880Z,18.90
2024-03-02T22:14:47.679Z,16.20
2024-03-02T22:17:21.656Z,18.90
2024-03-02T22:19:49.440Z,15.70
2024-03-02T22:22:28.502Z,15.00
2024-03-02T22:24:58.808Z,15.30
2024-03-02T22:27:36.122Z,20.30
2024-03-02T22:30:31.470Z,18.70
2024-03-02T22:33:03.978Z,16.80
2024-03-02T22:35:35.104Z,18.10
2024-03-02T22:38:05.308Z,14.50
2024-03-02T22:40:39.687Z,16.00
2024-03-02T22:49:21.133Z,16.70
2024-03-02T22:51:48.896Z,17.00
2024-03-02T22:54:16.506Z,14.00
2024-03-02T22:56:45.224Z,16.40
2024-03-02T22:59:16.014Z,23.60
2024-03-02T23:01:45.416Z,15.70
2024-03-02T23:04:13.479Z,17.20
2024-03-02T23:06:41.436Z,17.40
2024-03-02T23:09:10.469Z,16.20
2024-03-02T23:11:38.535Z,17.10
2024-03-02T23:14:06.547Z,14.10
2024-03-02T23:16:36.084Z,13.90
2024-03-02T23:19:04.447Z,15.80
2024-03-02T23:21:34.317Z,13.60
2024-03-02T23:24:02.478Z,16.60
2024-03-02T23:26:30.427Z,13.70
2024-03-02T23:28:58.118Z,16.30
2024-03-02T23:31:25.854Z,13.30
2024-03-02T23:33:56.268Z,15.80
2024-03-02T23:36:24.116Z,18.40
2024-03-02T23:38:51.923Z,15.40
2024-03-02T23:41:20.115Z,17.40
2024-03-02T23:43:48.099Z,18.10
2024-03-02T23:46:16.028Z,17.50
2024-03-02T23:48:43.976Z,15.50
2024-03-02T23:51:12.727Z,15.90
2024-03-02T23:53:40.686Z,18.10
2024-03-02T23:56:12.650Z,17.80
2024-03-02T23:58:40.707Z,17.20
